Tiempo atmosférico en la estación meteorológica de Banyalbufar, Illes Balears (60 m.)



Fecha
DESCASC
Temp. máxima en grados centígrados (hora)
DESCASC
Temp. mínima en grados centígrados (hora)
DESCASC
Temp. media en grados centígrados
DESCASC
Racha de viento máxima en m/sg (hora)
DESCASC
Velocidad máxima media en intervalos de 10 minutos(hora)
DESCASC
Precipitaciones diarias en mm
DESCASC
Precipitaciones de 00:00 a 06:00 en mm
DESCASC
Precipitaciones de 06:00 a 12:00 en mm
DESCASC
Precipitaciones de 12:00 a 18:00 en mm
DESCASC
Precipitaciones de 18:00 a 24:00 en mm
DESCASC
22-04-2019 15.3 (05:50) 13.9 (00:10) 14.6 12.22 (02:20) 7.22 (13:00) 2.4 0 0 0 2.4
21-04-2019 16.8 (16:20) 14.1 (23:59) 15.4 13.61 (21:50) 8.06 (20:40) 0 0 0 0 0
20-04-2019 19.5 (05:00) 15.4 (11:00) 17.4 21.94 (10:10) 13.06 (10:10) 0.4 0 0.4 0 0
19-04-2019 18.3 (22:40) 14.7 (03:50) 16.5 23.61 (00:30) 14.17 (00:40) 0 0 0 0 0
18-04-2019 21 (13:20) 15.6 (00:00) 18.3 24.44 (14:20) 14.72 (23:59) 0 0 0 0 0
17-04-2019 18.2 (16:20) 11.4 (00:00) 14.8 9.72 (23:20) 5.83 (23:20) 0 0 0 0 0
16-04-2019 18.1 (14:30) 12.7 (00:00) 15.4 8.06 (18:20) 4.72 (18:30) 0 0 0 0 0
15-04-2019 19.1 (09:20) 13.6 (00:00) 16.4 7.78 (03:00) 5.56 (03:10) 0 0 0 0 0
14-04-2019 20.6 (09:40) 13.1 (00:00) 16.9 8.61 (12:30) 6.39 (12:10) 0 0 0 0 0
13-04-2019 18.4 (09:50) 10.5 (00:00) 14.4 6.94 (16:10) 5 (16:10) 0 0 0 0 0
12-04-2019 16.6 (16:50) 11 (00:00) 13.8 8.61 (02:10) 5 (02:00) 0 0 0 0 0
11-04-2019 17.4 (18:00) 11 (00:00) 14.2 7.5 (22:40) 4.72 (19:50) 0 0 0 0 0
10-04-2019 16.9 (18:20) 10.3 (00:00) 13.6 11.67 (08:40) 7.78 (08:40) 5.2 1 4.2 0 0
09-04-2019 17.2 (17:50) 13.8 (00:00) 15.5 12.22 (22:20) 7.22 (12:20) 0 0 0 0 0
08-04-2019 17.6 (15:10) 10.9 (00:00) 14.3 8.89 (14:30) 5.56 (17:50) 0 0 0 0 0
07-04-2019 15.5 (17:40) 11.2 (00:00) 13.3 14.17 (07:10) 10 (07:10) 0 0 0 0 0
06-04-2019 14.7 (18:00) 9.2 (00:00) 11.9 14.17 (02:40) 8.06 (07:30) 2.6 2.4 0.2 0 0
05-04-2019 18.1 (13:20) 8.3 (00:00) 13.2 12.5 (22:10) 5.56 (22:10) 0.6 0 0 0.6 0
04-04-2019 14.8 (18:30) 8.3 (00:00) 11.6 12.78 (10:20) 9.72 (10:10) 0 0 0 0 0
03-04-2019 22.7 (16:00) 11.6 (00:00) 17.2 11.67 (15:40) 8.06 (22:10) 0 0 0 0 0
02-04-2019 17.4 (14:40) 10.5 (00:00) 13.9 7.5 (14:10) 5 (14:10) 0 0 0 0 0
01-04-2019 16.7 (15:30) 11.6 (00:00) 14.2 11.67 (01:50) 6.39 (01:30) 0 0 0 0 0
31-03-2019 18.4 (12:20) 11 (00:00) 14.7 10.83 (13:00) 5.56 (15:10) 0 0 0 0 0
30-03-2019 17 (17:20) 9.9 (00:00) 13.4 7.22 (18:40) 3.33 (00:10) 0 0 0 0 0
29-03-2019 15.6 (14:40) 9.4 (00:00) 12.5 9.17 (17:20) 6.11 (16:00) 0 0 0 0 0
28-03-2019 16.1 (15:00) 10 (00:00) 13.1 6.67 (13:00) 4.72 (13:10) 0 0 0 0 0
27-03-2019 14.7 (16:30) 10 (00:00) 12.3 11.67 (04:50) 6.67 (05:20) 0 0 0 0 0
26-03-2019 14 (08:00) 11.8 (00:00) 12.9 15.83 (13:20) 9.72 (13:00) 0 0 0 0 0
25-03-2019 17.7 (14:30) 10.6 (00:00) 14.2 6.39 (15:10) 3.89 (15:20) 0 0 0 0 0

Gráficas

Temp. máximas Temp. mínimas Temp. medias Precipitaciones Rachas de viento máximas Velocidades máximas media en intervalos de 10 minutos

Datos horarios

Fecha y hora oficial Temperatura (ºC) Velocidad del viento (km/h) Dirección del viento Racha (km/h) Dirección de racha Precipitación (mm) Presión (hPa) Tendencia (hPa) Humedad (%)
2019-04-23 23:00:00 18.1 10 Sudeste 42 Sur 0 -- -- 59
2019-04-23 22:00:00 17 11 Sur 43 Sur 0 -- -- 71
2019-04-23 21:00:00 16.9 6 Sudeste 28 Sur 0 -- -- 70
2019-04-23 20:00:00 18.2 16 Sur 39 Sur 0 -- -- 66
2019-04-23 19:00:00 18.2 20 Oeste 48 Oeste 0 -- -- 69
2019-04-23 18:00:00 18.6 7 Norte 33 Oeste 0 -- -- 67
2019-04-23 17:00:00 20.4 9 Noroeste 41 Sur 0 -- -- 64
2019-04-23 16:00:00 22.4 9 Sur 32 Oeste 0 -- -- 48
2019-04-23 15:00:00 20.1 10 Oeste 26 Oeste 0 -- -- 63
2019-04-23 14:00:00 20.6 13 Oeste 23 Oeste 0 -- -- 63
2019-04-23 13:00:00 19.5 8 Oeste 20 Oeste 0 -- -- 70
2019-04-23 12:00:00 18.8 6 Oeste 24 Sudoeste 0 -- -- 72
2019-04-23 11:00:00 16.6 4 Norte 7 Norte 0 -- -- 83
2019-04-23 10:00:00 16.3 2 Norte 9 Oeste 0 -- -- 83
2019-04-23 09:00:00 15.6 4 Oeste 15 Sudoeste 0 -- -- 87
2019-04-23 08:00:00 13.3 7 Sudoeste 17 Sudoeste 0 -- -- 100
2019-04-23 07:00:00 13.8 10 Sudoeste 23 Sudoeste 0 -- -- 100
2019-04-23 06:00:00 13.7 8 Sudoeste 19 Sudoeste 0 -- -- 100
2019-04-23 05:00:00 13.7 9 Oeste 24 Noroeste 0 -- -- 100
2019-04-23 04:00:00 13.4 13 Noroeste 37 Noroeste 0.2 -- -- 100
2019-04-23 03:00:00 13.8 27 Norte 48 Noroeste 0 -- -- 100
2019-04-23 02:00:00 13.9 27 Norte 43 Noroeste 0.4 -- -- 100
2019-04-23 01:00:00 13.8 19 Noroeste 33 Noroeste 2.2 -- -- 100
2019-04-23 00:00:00 14.1 23 Norte 32 Noroeste 1.6 -- -- 100
2019-04-22 23:00:00 14.4 15 Norte 31 Norte 0.6 -- -- 100
2019-04-22 22:00:00 14.3 22 Norte 34 Norte 0 -- -- 100
2019-04-22 21:00:00 14.3 23 Norte 34 Norte 0 -- -- 100
2019-04-22 20:00:00 14.3 18 Norte 31 Norte 0 -- -- 100
2019-04-22 19:00:00 14.2 16 Norte 30 Nordeste 0.2 -- -- 100
2019-04-22 18:00:00 14.4 17 Norte 28 Norte 0 -- -- 100
2019-04-22 17:00:00 14.3 15 Nordeste 33 Nordeste 0 -- -- 100
2019-04-22 16:00:00 14.3 18 Nordeste 40 Nordeste 0 -- -- 100
2019-04-22 15:00:00 14.4 18 Nordeste 41 Nordeste 0 -- -- 100
2019-04-22 14:00:00 14.4 21 Nordeste 41 Nordeste 0 -- -- 100
2019-04-22 13:00:00 14.4 26 Nordeste 41 Nordeste 0 -- -- 100
2019-04-22 12:00:00 14.4 22 Nordeste 35 Nordeste 0 -- -- 100
2019-04-22 11:00:00 14.3 16 Nordeste 34 Nordeste 0 -- -- 100
2019-04-22 10:00:00 14.3 22 Nordeste 39 Nordeste 0 -- -- 100
2019-04-22 09:00:00 14.3 21 Nordeste 41 Nordeste 0 -- -- 99
2019-04-22 08:00:00 14.8 12 Nordeste 24 Nordeste 0 -- -- 93
2019-04-22 07:00:00 14.6 15 Nordeste 38 Nordeste 0 -- -- 94
2019-04-22 06:00:00 15.3 9 Este 19 Nordeste 0 -- -- 87
2019-04-22 05:00:00 15 9 Nordeste 23 Nordeste 0 -- -- 90
2019-04-22 04:00:00 14.8 12 Nordeste 37 Nordeste 0 -- -- 92
2019-04-22 03:00:00 14.6 17 Nordeste 44 Nordeste 0 -- -- 94
2019-04-22 02:00:00 14.3 19 Nordeste 41 Nordeste 0 -- -- 97
2019-04-22 01:00:00 14.1 9 Este 35 Nordeste 0 -- -- 94
2019-04-22 00:00:00 14.1 18 Nordeste 42 Nordeste 0 -- -- 94
2019-04-21 23:00:00 15.1 13 Este 34 Nordeste 0 -- -- 89
2019-04-21 22:00:00 14.3 20 Nordeste 49 Nordeste 0 -- -- 89
2019-04-21 21:00:00 15.1 22 Nordeste 46 Nordeste 0 -- -- 86
2019-04-21 20:00:00 15.5 15 Este 32 Este 0 -- -- 86
2019-04-21 19:00:00 15.4 17 Nordeste 40 Nordeste 0 -- -- 93
2019-04-21 18:00:00 15.3 22 Nordeste 43 Nordeste 0 -- -- 91
2019-04-21 17:00:00 16.2 19 Nordeste 42 Nordeste 0 -- -- 87
2019-04-21 16:00:00 16.7 22 Nordeste 38 Nordeste 0 -- -- 86
2019-04-21 15:00:00 15.4 19 Nordeste 40 Nordeste 0 -- -- 94
2019-04-21 14:00:00 15.2 21 Nordeste 37 Nordeste 0 -- -- 94
2019-04-21 13:00:00 15 20 Nordeste 37 Nordeste 0 -- -- 97
2019-04-21 12:00:00 14.8 17 Nordeste 32 Nordeste 0 -- -- 96
2019-04-21 11:00:00 14.9 18 Nordeste 29 Nordeste 0 -- -- 90
2019-04-21 10:00:00 15.3 11 Nordeste 24 Este 0 -- -- 84
2019-04-21 09:00:00 15.4 9 Nordeste 16 Nordeste 0 -- -- 81
2019-04-21 08:00:00 15.3 9 Este 27 Sudeste 0 -- -- 80
2019-04-21 07:00:00 14.8 8 Nordeste 27 Este 0 -- -- 85
2019-04-21 06:00:00 14.8 9 Este 27 Nordeste 0 -- -- 85
2019-04-21 05:00:00 14.9 14 Nordeste 24 Nordeste 0 -- -- 81
2019-04-21 04:00:00 14.8 12 Nordeste 22 Nordeste 0 -- -- 82
2019-04-21 03:00:00 14.7 9 Nordeste 27 Nordeste 0 -- -- 80
2019-04-21 02:00:00 15.2 5 Este 25 Este 0 -- -- 73
2019-04-21 01:00:00 15.5 8 Sudeste 27 Nordeste 0 -- -- 71
2019-04-21 00:00:00 16.1 6 Este 34 Norte 0 -- -- 64
2019-04-20 23:00:00 16.3 9 Nordeste 33 Nordeste 0 -- -- 60
2019-04-20 22:00:00 16.4 13 Nordeste 31 Este 0 -- -- 59
2019-04-20 21:00:00 16.4 13 Este 45 Nordeste 0 -- -- 58
2019-04-20 20:00:00 15.9 25 Nordeste 42 Nordeste 0 -- -- 72
2019-04-20 19:00:00 17.3 19 Nordeste 35 Nordeste 0 -- -- 53
2019-04-20 18:00:00 18.1 17 Nordeste 44 Nordeste 0 -- -- 49
2019-04-20 17:00:00 18.2 18 Nordeste 55 Nordeste 0 -- -- 50
2019-04-20 16:00:00 18.5 15 Este 50 Nordeste 0 -- -- 51
2019-04-20 15:00:00 18 22 Nordeste 50 Este 0 -- -- 53
2019-04-20 14:00:00 17.9 21 Este 48 Este 0 -- -- 53
2019-04-20 13:00:00 17.7 17 Nordeste 45 Nordeste 0 -- -- 50
2019-04-20 12:00:00 17.5 16 Nordeste 75 Sudeste 0 -- -- 50
2019-04-20 11:00:00 15.4 34 Sudeste 79 Sudeste 0.4 -- -- 62
2019-04-20 10:00:00 17.4 39 Sudeste 73 Sudeste 0 -- -- 46
2019-04-20 09:00:00 17.3 37 Sudeste 71 Sudeste 0 -- -- 46
2019-04-20 08:00:00 17 41 Sudeste 76 Sudeste 0 -- -- 48
2019-04-20 07:00:00 17.5 21 Este 52 Sudeste 0 -- -- 48
2019-04-20 06:00:00 18.2 16 Este 53 Sudeste 0 -- -- 45
2019-04-20 05:00:00 19.5 27 Este 50 Este 0 -- -- 41
2019-04-20 04:00:00 18.4 16 Nordeste 35 Sudeste 0 -- -- 47
2019-04-20 03:00:00 18.6 19 Este 55 Sudeste 0 -- -- 47
2019-04-20 02:00:00 18.4 18 Este 59 Este 0 -- -- 47
2019-04-20 01:00:00 18.5 20 Este 61 Este 0 -- -- 48
2019-04-20 00:00:00 18.3 27 Este 55 Nordeste 0 -- -- 51
2019-04-19 23:00:00 18.2 23 Este 72 Sudeste 0 -- -- 53
2019-04-19 22:00:00 17.8 24 Este 56 Sudeste 0 -- -- 60
2019-04-19 21:00:00 17.1 24 Este 59 Este 0 -- -- 70
2019-04-19 20:00:00 17 19 Este 58 Este 0 -- -- 74
2019-04-19 19:00:00 17.4 32 Este 68 Este 0 -- -- 72
2019-04-19 18:00:00 17.4 32 Este 63 Nordeste 0 -- -- 73
2019-04-19 17:00:00 17.8 36 Este 65 Este 0 -- -- 71
2019-04-19 16:00:00 17.9 28 Este 61 Este 0 -- -- 71
2019-04-19 15:00:00 17.6 28 Este 61 Este 0 -- -- 75
2019-04-19 14:00:00 17.2 30 Este 66 Este 0 -- -- 77
2019-04-19 13:00:00 16.6 31 Este 60 Nordeste 0 -- -- 79
2019-04-19 12:00:00 16.2 30 Este 63 Este 0 -- -- 81
2019-04-19 11:00:00 16.2 31 Este 59 Este 0 -- -- 82
2019-04-19 10:00:00 16.1 22 Este 50 Este 0 -- -- 83
2019-04-19 09:00:00 16.1 19 Este 37 Este 0 -- -- 84
2019-04-19 08:00:00 16 15 Este 36 Este 0 -- -- 84
2019-04-19 07:00:00 15.8 17 Este 37 Este 0 -- -- 86
2019-04-19 06:00:00 15.5 16 Este 36 Este 0 -- -- 89
2019-04-19 05:00:00 15.1 12 Este 36 Sudeste 0 -- -- 93
2019-04-19 04:00:00 14.7 11 Este 40 Sudeste 0 -- -- 94
2019-04-19 03:00:00 15.2 12 Este 33 Este 0 -- -- 86
2019-04-19 02:00:00 15.8 17 Este 41 Nordeste 0 -- -- 80
2019-04-19 01:00:00 16.5 15 Sudeste 85 Sudeste 0 -- -- 77
2019-04-19 00:00:00 16 53 Sudeste 82 Sudeste 0 -- -- 76
2019-04-18 23:00:00 16.1 18 Sudeste 50 Este 0 -- -- 74
2019-04-18 22:00:00 16.4 22 Sudeste 59 Sudeste 0 -- -- 71
2019-04-18 21:00:00 17.7 17 Oeste 75 Sudeste 0 -- -- 66
2019-04-18 20:00:00 16.9 50 Sudeste 86 Sudeste 0 -- -- 71
2019-04-18 19:00:00 17.8 36 Sudeste 69 Sudeste 0 -- -- 68
2019-04-18 18:00:00 19.3 42 Sudeste 82 Sudeste 0 -- -- 62
2019-04-18 17:00:00 19.8 45 Sudeste 78 Sudeste 0 -- -- 60
2019-04-18 16:00:00 20.8 39 Sudeste 76 Sudeste 0 -- -- 57
2019-04-18 15:00:00 20.2 49 Sudeste 88 Sudeste 0 -- -- 58
2019-04-18 14:00:00 20.7 44 Sudeste 83 Sudeste 0 -- -- 55
2019-04-18 13:00:00 20.1 36 Sudeste 73 Sudeste 0 -- -- 50
2019-04-18 12:00:00 19.1 42 Sudeste 68 Este 0 -- -- 54
2019-04-18 11:00:00 19.9 22 Este 44 Este 0 -- -- 45
2019-04-18 10:00:00 19.1 18 Nordeste 55 Este 0 -- -- 47
2019-04-18 09:00:00 18.1 24 Este 48 Nordeste 0 -- -- 45
2019-04-18 08:00:00 17.2 17 Este 39 Este 0 -- -- 49
2019-04-18 07:00:00 16.6 5 Sur 43 Este 0 -- -- 48
2019-04-18 06:00:00 17 10 Este 31 Nordeste 0 -- -- 42
2019-04-18 05:00:00 17.2 10 Nordeste 27 Este 0 -- -- 41
2019-04-18 04:00:00 16 19 Nordeste 39 Nordeste 0 -- -- 66
2019-04-18 03:00:00 16 5 Noroeste 28 Sudeste 0 -- -- 62
2019-04-18 02:00:00 17.6 16 Este 43 Este 0 -- -- 43
2019-04-18 01:00:00 17.4 23 Nordeste 41 Este 0 -- -- 34
2019-04-18 00:00:00 15.6 17 Nordeste 35 Nordeste 0 -- -- 63
2019-04-17 23:00:00 15.8 18 Nordeste 29 Nordeste 0 -- -- 64
2019-04-17 22:00:00 14.6 5 Sudoeste 14 Sur 0 -- -- 85
2019-04-17 21:00:00 14.5 4 Sur 9 Sur 0 -- -- 85
2019-04-17 20:00:00 15.5 3 Oeste 8 Oeste 0 -- -- 81
2019-04-17 19:00:00 16.6 5 Oeste 15 Norte 0 -- -- 79
2019-04-17 18:00:00 17.7 6 Noroeste 12 Noroeste 0 -- -- 75
2019-04-17 17:00:00 17.3 6 Noroeste 13 Noroeste 0 -- -- 76
2019-04-17 16:00:00 17.2 6 Norte 11 Norte 0 -- -- 78
2019-04-17 15:00:00 16.7 5 Norte 12 Norte 0 -- -- 82
2019-04-17 14:00:00 16.6 6 Norte 12 Norte 0 -- -- 82
2019-04-17 13:00:00 16.2 6 Norte 16 Noroeste 0 -- -- 82
2019-04-17 12:00:00 16.4 8 Noroeste 17 Noroeste 0 -- -- 82
2019-04-17 11:00:00 16.5 4 Noroeste 10 Noroeste 0 -- -- 82
2019-04-17 10:00:00 16.1 4 Noroeste 7 Norte 0 -- -- 82
2019-04-17 09:00:00 15.9 2 Nordeste 8 Sur 0 -- -- 85
2019-04-17 08:00:00 12.7 7 Sur 12 Sur 0 -- -- 91
2019-04-17 07:00:00 11.7 10 Sur 12 Sur 0 -- -- 91
2019-04-17 06:00:00 11.5 10 Sur 12 Sur 0 -- -- 89
2019-04-17 05:00:00 11.8 6 Sur 12 Sur 0 -- -- 83
2019-04-17 04:00:00 12 8 Sur 12 Sur 0 -- -- 80
2019-04-17 03:00:00 12.4 7 Sur 11 Sur 0 -- -- 78
2019-04-17 02:00:00 12.9 5 Sur 10 Sur 0 -- -- 77
2019-04-17 01:00:00 13.2 7 Sur 12 Sur 0 -- -- 75
2019-04-17 00:00:00 13.3 8 Sur 13 Sur 0 -- -- 75
2019-04-16 23:00:00 13.7 8 Sur 14 Sur 0 -- -- 73
2019-04-16 22:00:00 14.1 6 Sur 13 Sur 0 -- -- 74
2019-04-16 21:00:00 14.7 3 Sur 19 Nordeste 0 -- -- 76
2019-04-16 20:00:00 15.9 12 Nordeste 25 Nordeste 0 -- -- 76
2019-04-16 19:00:00 16.4 12 Nordeste 29 Nordeste 0 -- -- 80
2019-04-16 18:00:00 16.7 16 Nordeste 25 Nordeste 0 -- -- 77
2019-04-16 17:00:00 17.8 10 Norte 20 Norte 0 -- -- 76
2019-04-16 16:00:00 17.5 8 Norte 13 Norte 0 -- -- 72
2019-04-16 15:00:00 17.6 6 Norte 10 Norte 0 -- -- 65
2019-04-16 14:00:00 17.4 5 Norte 10 Norte 0 -- -- 67
2019-04-16 13:00:00 17.4 6 Norte 10 Norte 0 -- -- 67
2019-04-16 12:00:00 17.4 4 Norte 8 Noroeste 0 -- -- 58
2019-04-16 11:00:00 17.6 4 Noroeste 9 Noroeste 0 -- -- 60
2019-04-16 10:00:00 17.4 3 Nordeste 12 Nordeste 0 -- -- 56
2019-04-16 09:00:00 16.1 5 Sudeste 13 Sudeste 0 -- -- 73
2019-04-16 08:00:00 12.7 7 Sudeste 13 Sudeste 0 -- -- 81
2019-04-16 07:00:00 13.9 8 Sudeste 23 Sudeste 0 -- -- 76
2019-04-16 06:00:00 13.8 7 Sudeste 10 Sur 0 -- -- 72
2019-04-16 05:00:00 13.3 6 Sur 13 Sudeste 0 -- -- 65
2019-04-16 04:00:00 13.8 6 Sur 12 Sur 0 -- -- 49
2019-04-16 03:00:00 13.8 6 Sur 12 Sur 0 -- -- 52
2019-04-16 02:00:00 14.4 3 Sudeste 11 Sur 0 -- -- 47
2019-04-16 01:00:00 14.5 5 Sur 12 Sudoeste 0 -- -- 46
2019-04-16 00:00:00 14.7 6 Sudoeste 11 Sur 0 -- -- 51
2019-04-15 23:00:00 14.9 4 Sudoeste 10 Nordeste 0 -- -- 55
2019-04-15 22:00:00 15.6 2 Sur 12 Noroeste 0 -- -- 53
2019-04-15 21:00:00 15.5 6 Sudoeste 15 Sur 0 -- -- 60
2019-04-15 20:00:00 16.4 8 Oeste 13 Sudoeste 0 -- -- 59
2019-04-15 19:00:00 17.4 4 Oeste 14 Oeste 0 -- -- 59
2019-04-15 18:00:00 16.7 7 Oeste 15 Noroeste 0 -- -- 71
2019-04-15 17:00:00 18.2 5 Noroeste 13 Oeste 0 -- -- 56
2019-04-15 16:00:00 17.7 6 Noroeste 13 Norte 0 -- -- 65
2019-04-15 15:00:00 17.1 12 Norte 15 Norte 0 -- -- 74
2019-04-15 14:00:00 17.4 4 Norte 10 Noroeste 0 -- -- 69
2019-04-15 13:00:00 17.9 6 Noroeste 17 Sudoeste 0 -- -- 65
2019-04-15 12:00:00 17.9 8 Oeste 21 Oeste 0 -- -- 66
2019-04-15 11:00:00 18.2 5 Noroeste 18 Sudoeste 0 -- -- 51
2019-04-15 10:00:00 18.1 4 Noroeste 10 Oeste 0 -- -- 52
2019-04-15 09:00:00 18.4 3 Oeste 12 Sudoeste 0 -- -- 41
2019-04-15 08:00:00 14.6 4 Sur 12 Sur 0 -- -- 48
2019-04-15 07:00:00 14.3 5 Sudeste 20 Sudeste 0 -- -- 46
2019-04-15 06:00:00 16.3 6 Sudeste 25 Sudeste 0 -- -- 40
2019-04-15 05:00:00 14.8 7 Sudeste 20 Sudeste 0 -- -- 48
2019-04-15 04:00:00 16.5 13 Sudeste 26 Sudeste 0 -- -- 39
2019-04-15 03:00:00 16.3 18 Sudeste 28 Sudeste 0 -- -- 44
2019-04-15 02:00:00 16.7 5 Sur 19 Sudeste 0 -- -- 46
2019-04-15 01:00:00 16.5 9 Sudeste 17 Sudeste 0 -- -- 47
2019-04-15 00:00:00 16.2 3 Sudoeste 8 Sudeste 0 -- -- 51
2019-04-14 23:00:00 15.2 6 Sudeste 14 Sur 0 -- -- 73
2019-04-14 22:00:00 15.5 6 Norte 18 Sudoeste 0 -- -- 89
2019-04-14 21:00:00 15.8 2 Este 5 Oeste 0 -- -- 82
2019-04-14 20:00:00 18.2 0 Calma 6 Noroeste 0 -- -- 75
2019-04-14 19:00:00 19.1 4 Noroeste 10 Oeste 0 -- -- 71
2019-04-14 18:00:00 19.1 3 Noroeste 15 Oeste 0 -- -- 68
2019-04-14 17:00:00 18.6 3 Norte 9 Noroeste 0 -- -- 71
2019-04-14 16:00:00 19.3 3 Norte 10 Oeste 0 -- -- 66
2019-04-14 15:00:00 18.6 6 Noroeste 15 Oeste 0 -- -- 69
2019-04-14 14:00:00 18.5 8 Oeste 30 Oeste 0 -- -- 61
2019-04-14 13:00:00 17.5 18 Oeste 31 Oeste 0 -- -- 59
2019-04-14 12:00:00 18.5 17 Oeste 30 Oeste 0 -- -- 41
2019-04-14 11:00:00 20.4 13 Oeste 27 Oeste 0 -- -- 21
2019-04-14 10:00:00 20.1 10 Sudoeste 22 Oeste 0 -- -- 24
2019-04-14 09:00:00 17.8 3 Sur 9 Sudeste 0 -- -- 46
2019-04-14 08:00:00 13.5 4 Sudeste 10 Sudeste 0 -- -- 54
2019-04-14 07:00:00 14.3 5 Sudeste 24 Sudoeste 0 -- -- 44
2019-04-14 06:00:00 16 10 Sudoeste 21 Sudoeste 0 -- -- 40
2019-04-14 05:00:00 16.6 12 Sudoeste 26 Sudoeste 0 -- -- 27
2019-04-14 04:00:00 14.7 5 Sudoeste 10 Sur 0 -- -- 26
2019-04-14 03:00:00 14.3 5 Sudeste 13 Sur 0 -- -- 32
2019-04-14 02:00:00 13.4 8 Sur 12 Sur 0 -- -- 39
2019-04-14 01:00:00 13.7 7 Sur 13 Sur 0 -- -- 35
2019-04-14 00:00:00 14.6 4 Sur 12 Sur 0 -- -- 34
2019-04-13 23:00:00 14.9 10 Sudoeste 20 Sur 0 -- -- 37
2019-04-13 22:00:00 14.4 12 Sur 17 Sudoeste 0 -- -- 46
2019-04-13 21:00:00 15.5 9 Sudoeste 21 Sudoeste 0 -- -- 51
2019-04-13 20:00:00 17.1 7 Oeste 19 Sudoeste 0 -- -- 63
2019-04-13 19:00:00 17.2 12 Oeste 24 Oeste 0 -- -- 71
2019-04-13 18:00:00 16.9 15 Oeste 24 Oeste 0 -- -- 74
2019-04-13 17:00:00 16.6 15 Oeste 25 Oeste 0 -- -- 73
2019-04-13 16:00:00 16.3 17 Oeste 24 Oeste 0 -- -- 77
2019-04-13 15:00:00 16.6 9 Noroeste 18 Oeste 0 -- -- 74
2019-04-13 14:00:00 16.4 10 Oeste 19 Oeste 0 -- -- 79
2019-04-13 13:00:00 16.3 10 Oeste 22 Oeste 0 -- -- 78
2019-04-13 12:00:00 16.7 10 Oeste 18 Oeste 0 -- -- 70
2019-04-13 11:00:00 16.6 6 Noroeste 12 Norte 0 -- -- 60
2019-04-13 10:00:00 17.6 2 Norte 6 Sur 0 -- -- 49
2019-04-13 09:00:00 14.8 4 Sudeste 15 Sur 0 -- -- 57
2019-04-13 08:00:00 11.2 9 Sur 14 Sur 0 -- -- 62
2019-04-13 07:00:00 10.5 10 Sur 15 Sur 0 -- -- 65
2019-04-13 06:00:00 11.2 6 Sur 12 Sur 0 -- -- 72
2019-04-13 05:00:00 11 6 Sur 11 Sur 0 -- -- 76
2019-04-13 04:00:00 11.2 6 Sur 12 Sur 0 -- -- 74
2019-04-13 03:00:00 10.6 8 Sur 12 Sur 0 -- -- 70
2019-04-13 02:00:00 11 7 Sur 13 Sur 0 -- -- 64
2019-04-13 01:00:00 10.9 10 Sur 13 Sur 0 -- -- 62
2019-04-13 00:00:00 11 5 Sur 12 Sur 0 -- -- 62
2019-04-12 23:00:00 11.3 7 Sur 13 Sudoeste 0 -- -- 62
2019-04-12 22:00:00 12 5 Sur 11 Sur 0 -- -- 62
2019-04-12 21:00:00 12.1 6 Sur 10 Sur 0 -- -- 72
2019-04-12 20:00:00 15.3 3 Sudoeste 16 Oeste 0 -- -- 75
2019-04-12 19:00:00 15.7 7 Noroeste 13 Noroeste 0 -- -- 73
2019-04-12 18:00:00 15.8 4 Norte 11 Norte 0 -- -- 71
2019-04-12 17:00:00 15.8 8 Norte 12 Norte 0 -- -- 71
2019-04-12 16:00:00 16.3 7 Norte 13 Norte 0 -- -- 75
2019-04-12 15:00:00 15.2 8 Norte 13 Norte 0 -- -- 77
2019-04-12 14:00:00 15.6 6 Norte 18 Norte 0 -- -- 77
2019-04-12 13:00:00 15.4 9 Norte 16 Noroeste 0 -- -- 76
2019-04-12 12:00:00 16.1 6 Norte 12 Norte 0 -- -- 81
2019-04-12 11:00:00 15.3 8 Noroeste 15 Noroeste 0 -- -- 84
2019-04-12 10:00:00 14.9 10 Oeste 14 Oeste 0 -- -- 81
2019-04-12 09:00:00 13.5 5 Sur 9 Sur 0 -- -- 85
2019-04-12 08:00:00 12.4 6 Sur 10 Sur 0 -- -- 87
2019-04-12 07:00:00 13 6 Sudoeste 15 Sur 0 -- -- 86
2019-04-12 06:00:00 13.3 6 Sur 14 Oeste 0 -- -- 82
2019-04-12 05:00:00 13.8 6 Sudoeste 21 Sudoeste 0 -- -- 79
2019-04-12 04:00:00 13.5 13 Sudoeste 21 Oeste 0 -- -- 77
2019-04-12 03:00:00 13.9 7 Oeste 31 Sudoeste 0 -- -- 82
2019-04-12 02:00:00 13.9 18 Sudoeste 28 Sur 0 -- -- 81
2019-04-12 01:00:00 14 13 Sudoeste 26 Sudoeste 0 -- -- 75
2019-04-12 00:00:00 14.2 10 Sudoeste 23 Sudoeste 0 -- -- 65
2019-04-11 23:00:00 14.3 12 Sudoeste 27 Sudoeste 0 -- -- 52
2019-04-11 22:00:00 14 6 Oeste 19 Sur 0 -- -- 51
2019-04-11 21:00:00 13.5 12 Sudoeste 21 Oeste 0 -- -- 61
2019-04-11 20:00:00 14.7 17 Oeste 24 Oeste 0 -- -- 69
2019-04-11 19:00:00 16.3 10 Oeste 16 Oeste 0 -- -- 54
2019-04-11 18:00:00 17.4 5 Oeste 16 Sudoeste 0 -- -- 56
2019-04-11 17:00:00 16.3 11 Oeste 23 Oeste 0 -- -- 63
2019-04-11 16:00:00 16.3 12 Oeste 21 Noroeste 0 -- -- 64
2019-04-11 15:00:00 15.5 10 Oeste 19 Oeste 0 -- -- 68
2019-04-11 14:00:00 14.6 10 Noroeste 19 Noroeste 0 -- -- 75
2019-04-11 13:00:00 15 9 Norte 18 Norte 0 -- -- 71
2019-04-11 12:00:00 15.6 6 Noroeste 12 Norte 0 -- -- 70
2019-04-11 11:00:00 14.4 7 Norte 18 Norte 0 -- -- 75
2019-04-11 10:00:00 13.8 8 Noroeste 18 Norte 0 -- -- 79
2019-04-11 09:00:00 13.5 15 Norte 20 Norte 0 -- -- 81
2019-04-11 08:00:00 12.8 4 Sudoeste 9 Sur 0 -- -- 83
2019-04-11 07:00:00 13.3 7 Noroeste 14 Norte 0 -- -- 81
2019-04-11 06:00:00 11.8 6 Sur 15 Sudoeste 0 -- -- 78
2019-04-11 05:00:00 11.7 10 Sur 15 Sur 0 -- -- 76
2019-04-11 04:00:00 11 11 Sur 14 Sur 0 -- -- 78
2019-04-11 03:00:00 12.1 10 Sudoeste 15 Sudoeste 0 -- -- 75
2019-04-11 02:00:00 12.5 11 Sudoeste 18 Sudoeste 0 -- -- 70
2019-04-11 01:00:00 13.4 11 Sudoeste 18 Sudoeste 0 -- -- 64
2019-04-11 00:00:00 12.7 9 Sudoeste 16 Sudoeste 0 -- -- 63
2019-04-10 23:00:00 12.5 12 Sudoeste 18 Sudoeste 0 -- -- 64
2019-04-10 22:00:00 11.7 8 Sur 12 Sur 0 -- -- 71
2019-04-10 21:00:00 12.4 8 Sur 13 Sur 0 -- -- 71
2019-04-10 20:00:00 14.9 8 Oeste 17 Oeste 0 -- -- 66
2019-04-10 19:00:00 15.7 9 Oeste 19 Oeste 0 -- -- 64
2019-04-10 18:00:00 16.7 7 Oeste 19 Oeste 0 -- -- 62
2019-04-10 17:00:00 16.1 8 Oeste 20 Oeste 0 -- -- 61
2019-04-10 16:00:00 15.5 13 Oeste 22 Oeste 0 -- -- 66
2019-04-10 15:00:00 15.5 9 Oeste 17 Noroeste 0 -- -- 65
2019-04-10 14:00:00 15.2 9 Noroeste 23 Noroeste 0 -- -- 69
2019-04-10 13:00:00 15 8 Noroeste 18 Noroeste 0 -- -- 70
2019-04-10 12:00:00 14.2 14 Noroeste 27 Noroeste 0 -- -- 71
2019-04-10 11:00:00 13.9 16 Norte 28 Norte 0.2 -- -- 75
2019-04-10 10:00:00 12.7 10 Noroeste 25 Norte 0.4 -- -- 84
2019-04-10 09:00:00 12.8 18 Norte 42 Norte 0 -- -- 83
2019-04-10 08:00:00 11.6 13 Sudoeste 28 Sudoeste 0 -- -- 87
2019-04-10 07:00:00 10.4 14 Sudoeste 23 Sur 3.6 -- -- 90
2019-04-10 06:00:00 11.1 10 Sur 39 Norte 0.8 -- -- 79
2019-04-10 05:00:00 14 15 Norte 33 Norte 0 -- -- 72
2019-04-10 04:00:00 13.9 14 Sudoeste 29 Sur 0 -- -- 80
2019-04-10 03:00:00 13.5 17 Sudoeste 32 Sudoeste 0 -- -- 78
2019-04-10 02:00:00 13.4 17 Sudoeste 31 Sudoeste 0.2 -- -- 78
2019-04-10 01:00:00 14.2 17 Sudoeste 32 Sur 0 -- -- 67
2019-04-10 00:00:00 14.2 10 Sudoeste 35 Sudoeste 0 -- -- 65
2019-04-09 23:00:00 14.3 14 Sudoeste 44 Sudoeste 0 -- -- 68
2019-04-09 22:00:00 15.4 15 Sudoeste 37 Sudoeste 0 -- -- 59
2019-04-09 21:00:00 15.2 8 Sudoeste 24 Oeste 0 -- -- 47
2019-04-09 20:00:00 16.4 8 Sudoeste 23 Sudoeste 0 -- -- 47
2019-04-09 19:00:00 17 14 Sudoeste 32 Oeste 0 -- -- 50
2019-04-09 18:00:00 17.2 14 Sudoeste 29 Oeste 0 -- -- 54
2019-04-09 17:00:00 16.8 14 Oeste 27 Oeste 0 -- -- 58
2019-04-09 16:00:00 16.4 13 Oeste 27 Oeste 0 -- -- 63
2019-04-09 15:00:00 15.9 12 Noroeste 26 Oeste 0 -- -- 64
2019-04-09 14:00:00 15.5 11 Noroeste 28 Norte 0 -- -- 73
2019-04-09 13:00:00 15.4 22 Norte 38 Norte 0 -- -- 75
2019-04-09 12:00:00 14.5 19 Norte 30 Norte 0 -- -- 84
2019-04-09 11:00:00 14.6 10 Oeste 25 Noroeste 0 -- -- 81
2019-04-09 10:00:00 15.2 10 Oeste 38 Noroeste 0 -- -- 79
2019-04-09 09:00:00 14.7 18 Oeste 31 Sudoeste 0 -- -- 92
2019-04-09 08:00:00 15 11 Sudoeste 31 Sur 0 -- -- 79
2019-04-09 07:00:00 14.8 15 Sudoeste 36 Oeste 0 -- -- 75
2019-04-09 06:00:00 16.1 9 Sudoeste 27 Sudoeste 0 -- -- 65
2019-04-09 05:00:00 16.2 13 Sudoeste 31 Sur 0 -- -- 64
2019-04-09 04:00:00 16.5 13 Sudoeste 29 Sur 0 -- -- 62
2019-04-09 03:00:00 16.6 7 Sur 22 Sudoeste 0 -- -- 56
2019-04-09 02:00:00 15.8 9 Sur 15 Sur 0 -- -- 60
2019-04-09 01:00:00 15.5 3 Sur 10 Este 0 -- -- 60
2019-04-09 00:00:00 15.7 4 Sur 12 Sudeste 0 -- -- 59
2019-04-08 23:00:00 15.3 8 Sur 18 Sudoeste 0 -- -- 57
2019-04-08 22:00:00 16.2 9 Sur 25 Sudoeste 0 -- -- 56
2019-04-08 21:00:00 15.9 10 Sudoeste 20 Sudoeste 0 -- -- 58
2019-04-08 20:00:00 16.6 11 Oeste 29 Sudoeste 0 -- -- 60
2019-04-08 19:00:00 17.5 18 Oeste 27 Sudoeste 0 -- -- 59
2019-04-08 18:00:00 17.3 17 Oeste 28 Oeste 0 -- -- 64
2019-04-08 17:00:00 17.1 19 Oeste 29 Oeste 0 -- -- 68
2019-04-08 16:00:00 17.2 18 Oeste 30 Sudoeste 0 -- -- 70
2019-04-08 15:00:00 17.4 13 Oeste 32 Oeste 0 -- -- 63
2019-04-08 14:00:00 16.5 13 Sudoeste 27 Oeste 0 -- -- 64
2019-04-08 13:00:00 16.4 10 Oeste 28 Oeste 0 -- -- 63
2019-04-08 12:00:00 16.1 13 Oeste 28 Oeste 0 -- -- 59
2019-04-08 11:00:00 16.4 12 Oeste 30 Oeste 0 -- -- 50
2019-04-08 10:00:00 16.6 14 Oeste 25 Sudoeste 0 -- -- 51
2019-04-08 09:00:00 16.3 9 Sudoeste 25 Sudoeste 0 -- -- 44
2019-04-08 08:00:00 15.9 11 Oeste 26 Sudoeste 0 -- -- 39
2019-04-08 07:00:00 15.5 9 Sur 20 Sudoeste 0 -- -- 36
2019-04-08 06:00:00 14.4 9 Sur 24 Sur 0 -- -- 40
2019-04-08 05:00:00 13.1 13 Sur 22 Sudoeste 0 -- -- 42
2019-04-08 04:00:00 12.8 11 Sur 19 Sudoeste 0 -- -- 45
2019-04-08 03:00:00 11.4 9 Sur 15 Sur 0 -- -- 52
2019-04-08 02:00:00 11.4 13 Sur 17 Sur 0 -- -- 53
2019-04-08 01:00:00 11.2 12 Sur 17 Sur 0 -- -- 56
2019-04-08 00:00:00 11.2 12 Sur 17 Sur 0 -- -- 57
2019-04-07 23:00:00 11.3 12 Sur 19 Sur 0 -- -- 61
2019-04-07 22:00:00 12 13 Sudoeste 19 Sur 0 -- -- 69
2019-04-07 21:00:00 11.8 10 Sudoeste 17 Sudoeste 0 -- -- 66
2019-04-07 20:00:00 14.4 8 Oeste 18 Noroeste 0 -- -- 59
2019-04-07 19:00:00 15 12 Noroeste 26 Noroeste 0 -- -- 57
2019-04-07 18:00:00 14.9 15 Noroeste 30 Noroeste 0 -- -- 62
2019-04-07 17:00:00 14.8 26 Norte 35 Norte 0 -- -- 60
2019-04-07 16:00:00 14 18 Norte 39 Norte 0 -- -- 60
2019-04-07 15:00:00 14.2 19 Norte 36 Norte 0 -- -- 60
2019-04-07 14:00:00 13.2 18 Norte 35 Norte 0 -- -- 65
2019-04-07 13:00:00 13.1 21 Norte 35 Norte 0 -- -- 66
2019-04-07 12:00:00 13.8 26 Norte 36 Noroeste 0 -- -- 63
2019-04-07 11:00:00 13 22 Norte 39 Norte 0 -- -- 64
2019-04-07 10:00:00 13 21 Norte 41 Noroeste 0 -- -- 64
2019-04-07 09:00:00 12.8 32 Norte 46 Noroeste 0 -- -- 66
2019-04-07 08:00:00 12.7 25 Norte 51 Noroeste 0 -- -- 68
2019-04-07 07:00:00 12.9 30 Norte 45 Norte 0 -- -- 66
2019-04-07 06:00:00 13.1 16 Noroeste 30 Noroeste 0 -- -- 68
2019-04-07 05:00:00 12.7 12 Sudoeste 35 Oeste 0 -- -- 74
2019-04-07 04:00:00 13 14 Oeste 34 Noroeste 0 -- -- 69
2019-04-07 03:00:00 13.1 15 Sudoeste 37 Oeste 0 -- -- 68
2019-04-07 02:00:00 13.4 15 Sudoeste 37 Sur 0 -- -- 67
2019-04-07 01:00:00 13 10 Sudoeste 28 Oeste 0 -- -- 62
2019-04-07 00:00:00 13 9 Sudoeste 26 Sudoeste 0 -- -- 62
2019-04-06 23:00:00 12.9 10 Sudoeste 24 Sudoeste 0 -- -- 59
2019-04-06 22:00:00 12.3 3 Sudoeste 21 Sudoeste 0 -- -- 62
2019-04-06 21:00:00 13.3 8 Sudoeste 27 Sudoeste 0 -- -- 55
2019-04-06 20:00:00 14.2 13 Sudoeste 30 Sudoeste 0 -- -- 54
2019-04-06 19:00:00 13.9 16 Sudoeste 41 Sudoeste 0 -- -- 63
2019-04-06 18:00:00 14.7 19 Sudoeste 40 Oeste 0 -- -- 56
2019-04-06 17:00:00 13.6 15 Oeste 44 Oeste 0 -- -- 57
2019-04-06 16:00:00 13.8 15 Sudoeste 38 Oeste 0 -- -- 59
2019-04-06 15:00:00 13.2 11 Oeste 35 Oeste 0 -- -- 63
2019-04-06 14:00:00 13.4 17 Oeste 33 Sudoeste 0 -- -- 67
2019-04-06 13:00:00 12.9 12 Oeste 40 Oeste 0 -- -- 68
2019-04-06 12:00:00 12.6 19 Oeste 39 Oeste 0 -- -- 66
2019-04-06 11:00:00 12.8 19 Oeste 41 Oeste 0 -- -- 69
2019-04-06 10:00:00 12.6 17 Oeste 44 Sudoeste 0 -- -- 67
2019-04-06 09:00:00 12.2 19 Oeste 45 Sudoeste 0 -- -- 70
2019-04-06 08:00:00 11.6 14 Noroeste 46 Sudoeste 0.2 -- -- 78
2019-04-06 07:00:00 12.4 19 Oeste 42 Sudoeste 0 -- -- 69
2019-04-06 06:00:00 12.2 15 Sudoeste 40 Sudoeste 0 -- -- 69
2019-04-06 05:00:00 11.4 19 Sudoeste 39 Sudoeste 0 -- -- 72
2019-04-06 04:00:00 10.2 9 Sur 28 Sudoeste 0.2 -- -- 82
2019-04-06 03:00:00 9.2 14 Sur 51 Sudoeste 2.2 -- -- 81
2019-04-06 02:00:00 13.1 11 Sudoeste 31 Sudoeste 0 -- -- 64
2019-04-06 01:00:00 13.1 10 Sudoeste 26 Sudoeste 0 -- -- 64
2019-04-06 00:00:00 12.8 15 Sudoeste 34 Sudoeste 0 -- -- 82
2019-04-05 23:00:00 12.4 4 Sudoeste 45 Sudoeste 0 -- -- 85
2019-04-05 22:00:00 14.8 7 Sudoeste 31 Sudoeste 0 -- -- 74
2019-04-05 21:00:00 14.5 12 Sudoeste 36 Sudoeste 0 -- -- 72
2019-04-05 20:00:00 14.8 10 Sudoeste 32 Sudoeste 0 -- -- 70
2019-04-05 19:00:00 14.6 7 Nordeste 34 Oeste 0 -- -- 74
2019-04-05 18:00:00 14.7 14 Oeste 29 Sudoeste 0.4 -- -- 76
2019-04-05 17:00:00 14.7 5 Sudeste 23 Sur 0.2 -- -- 75
2019-04-05 16:00:00 16.2 7 Norte 41 Sudoeste 0 -- -- 62
2019-04-05 15:00:00 16.9 13 Sur 39 Sur 0 -- -- 57
2019-04-05 14:00:00 17.7 14 Sudeste 35 Sur 0 -- -- 49
2019-04-05 13:00:00 17.5 14 Sur 39 Sudeste 0 -- -- 42
2019-04-05 12:00:00 17.1 12 Sur 39 Sudeste 0 -- -- 45
2019-04-05 11:00:00 16.3 11 Sur 31 Sudeste 0 -- -- 42
2019-04-05 10:00:00 15.1 9 Sudeste 31 Sudoeste 0 -- -- 40
2019-04-05 09:00:00 14.6 2 Este 15 Sudoeste 0 -- -- 33
2019-04-05 08:00:00 11 6 Sudoeste 18 Sudoeste 0 -- -- 38
2019-04-05 07:00:00 8.5 5 Sur 12 Sur 0 -- -- 29
2019-04-05 06:00:00 9.8 6 Sur 17 Sur 0 -- -- 22
2019-04-05 05:00:00 10.2 6 Sur 21 Oeste 0 -- -- 17
2019-04-05 04:00:00 9.5 5 Sur 15 Sudeste 0 -- -- 31
2019-04-05 03:00:00 9 5 Sur 13 Sur 0 -- -- 38
2019-04-05 02:00:00 9.3 5 Sudeste 13 Sur 0 -- -- 36
2019-04-05 01:00:00 8.3 7 Sur 14 Sur 0 -- -- 38
2019-04-05 00:00:00 8.8 11 Sur 15 Sur 0 -- -- 37
2019-04-04 23:00:00 8.4 8 Sur 14 Sudoeste 0 -- -- 31
2019-04-04 22:00:00 8.6 9 Sur 14 Sur 0 -- -- 32
2019-04-04 21:00:00 8.8 8 Sur 13 Sur 0 -- -- 39
2019-04-04 20:00:00 12.2 6 Sur 9 Sur 0 -- -- 54
2019-04-04 19:00:00 14 3 Noroeste 12 Norte 0 -- -- 46
2019-04-04 18:00:00 14 5 Norte 12 Norte 0 -- -- 45
2019-04-04 17:00:00 14.1 5 Noroeste 16 Norte 0 -- -- 45
2019-04-04 16:00:00 13.6 7 Norte 18 Noroeste 0 -- -- 50
2019-04-04 15:00:00 13.4 9 Norte 23 Norte 0 -- -- 50
2019-04-04 14:00:00 12.7 8 Norte 27 Norte 0 -- -- 56
2019-04-04 13:00:00 11.7 13 Norte 34 Noroeste 0 -- -- 58
2019-04-04 12:00:00 11.3 24 Norte 39 Noroeste 0 -- -- 56
2019-04-04 11:00:00 11 23 Norte 46 Norte 0 -- -- 58
2019-04-04 10:00:00 11.5 33 Norte 44 Norte 0 -- -- 56
2019-04-04 09:00:00 11.1 30 Norte 41 Noroeste 0 -- -- 61
2019-04-04 08:00:00 11.2 25 Norte 36 Noroeste 0 -- -- 62
2019-04-04 07:00:00 11.5 23 Norte 33 Noroeste 0 -- -- 68
2019-04-04 06:00:00 11.5 19 Norte 27 Noroeste 0 -- -- 62
2019-04-04 05:00:00 11.7 13 Norte 25 Norte 0 -- -- 68
2019-04-04 04:00:00 11.4 2 Sudoeste 16 Sudeste 0 -- -- 66
2019-04-04 03:00:00 11.5 8 Sudeste 25 Nordeste 0 -- -- 76
2019-04-04 02:00:00 11.8 13 Este 30 Nordeste 0 -- -- 80
2019-04-04 01:00:00 12.1 18 Nordeste 34 Norte 0 -- -- 76
2019-04-04 00:00:00 12.2 19 Norte 38 Norte 0 -- -- 82
2019-04-03 23:00:00 12.3 27 Norte 42 Norte 0 -- -- 84
2019-04-03 22:00:00 14.8 24 Norte 41 Norte 0 -- -- 77
2019-04-03 21:00:00 18.1 13 Oeste 37 Sur 0 -- -- 50
2019-04-03 20:00:00 18.1 14 Sudeste 31 Sudeste 0 -- -- 52
2019-04-03 19:00:00 19.2 14 Sudeste 26 Sudeste 0 -- -- 52
2019-04-03 18:00:00 21.6 5 Sudeste 30 Sudeste 0 -- -- 48
2019-04-03 17:00:00 20.8 12 Sudeste 27 Sudeste 0 -- -- 55
2019-04-03 16:00:00 22.7 10 Sur 42 Sudoeste 0 -- -- 41
2019-04-03 15:00:00 22.4 11 Sudoeste 33 Oeste 0 -- -- 42
2019-04-03 14:00:00 20.8 10 Oeste 26 Sur 0 -- -- 47
2019-04-03 13:00:00 19.7 7 Nordeste 22 Sudeste 0 -- -- 57
2019-04-03 12:00:00 19.1 12 Sur 34 Sudeste 0 -- -- 62
2019-04-03 11:00:00 18.9 9 Sudeste 36 Sur 0 -- -- 60
2019-04-03 10:00:00 17.3 15 Sur 29 Sur 0 -- -- 67
2019-04-03 09:00:00 16.2 12 Sur 30 Sur 0 -- -- 74
2019-04-03 08:00:00 14.5 14 Sur 30 Sudoeste 0 -- -- 80
2019-04-03 07:00:00 12.9 3 Sudeste 13 Este 0 -- -- 87
2019-04-03 06:00:00 12.5 6 Sudoeste 11 Sur 0 -- -- 90
2019-04-03 05:00:00 12.1 5 Sur 10 Sur 0 -- -- 93
2019-04-03 04:00:00 11.8 8 Sur 11 Sur 0 -- -- 90
2019-04-03 03:00:00 12 6 Sur 12 Sur 0 -- -- 90
2019-04-03 02:00:00 12.2 7 Sur 12 Sur 0 -- -- 91
2019-04-03 01:00:00 12.3 8 Sur 11 Sur 0 -- -- 89
2019-04-03 00:00:00 13.3 5 Sur 12 Este 0 -- -- 87
2019-04-02 23:00:00 13.1 4 Sur 10 Sur 0 -- -- 89
2019-04-02 22:00:00 13 5 Sur 11 Sur 0 -- -- 90
2019-04-02 21:00:00 13.8 4 Sudeste 14 Sudoeste 0 -- -- 89
2019-04-02 20:00:00 15.6 7 Oeste 26 Oeste 0 -- -- 84
2019-04-02 19:00:00 16.8 13 Sudoeste 24 Sudoeste 0 -- -- 79
2019-04-02 18:00:00 16.3 15 Sudoeste 26 Oeste 0 -- -- 80
2019-04-02 17:00:00 17 14 Oeste 26 Oeste 0 -- -- 80
2019-04-02 16:00:00 16.6 12 Oeste 23 Oeste 0 -- -- 77
2019-04-02 15:00:00 17.3 12 Oeste 27 Oeste 0 -- -- 74
2019-04-02 14:00:00 16.8 17 Oeste 25 Sudoeste 0 -- -- 73
2019-04-02 13:00:00 16.6 12 Sudoeste 24 Sudoeste 0 -- -- 75
2019-04-02 12:00:00 15.7 12 Oeste 24 Oeste 0 -- -- 79
2019-04-02 11:00:00 15.8 3 Noroeste 5 Oeste 0 -- -- 75
2019-04-02 10:00:00 15.5 3 Nordeste 6 Sur 0 -- -- 74
2019-04-02 09:00:00 13.6 5 Sudeste 12 Sudoeste 0 -- -- 78
2019-04-02 08:00:00 10.8 6 Sur 12 Sur 0 -- -- 89
2019-04-02 07:00:00 11.5 9 Sudoeste 14 Sudoeste 0 -- -- 89
2019-04-02 06:00:00 11.2 8 Sur 13 Sur 0 -- -- 84
2019-04-02 05:00:00 12.6 8 Sudoeste 16 Sudoeste 0 -- -- 79
2019-04-02 04:00:00 10.9 9 Sudoeste 14 Sur 0 -- -- 73
2019-04-02 03:00:00 10.6 8 Sur 13 Sur 0 -- -- 69
2019-04-02 02:00:00 11.1 10 Sur 14 Sur 0 -- -- 66
2019-04-02 01:00:00 12 9 Sudoeste 13 Sur 0 -- -- 63
2019-04-02 00:00:00 11.9 10 Sur 13 Sur 0 -- -- 73
2019-04-01 23:00:00 11.8 8 Sur 10 Sur 0 -- -- 75
2019-04-01 22:00:00 12.1 7 Sur 9 Sur 0 -- -- 75
2019-04-01 21:00:00 12.7 3 Sur 7 Sur 0 -- -- 78
2019-04-01 20:00:00 13.9 4 Norte 7 Norte 0 -- -- 76
2019-04-01 19:00:00 14.6 4 Norte 6 Norte 0 -- -- 73
2019-04-01 18:00:00 15 5 Norte 8 Norte 0 -- -- 75
2019-04-01 17:00:00 14.8 5 Norte 9 Norte 0 -- -- 74
2019-04-01 16:00:00 15.9 5 Noroeste 8 Noroeste 0 -- -- 71
2019-04-01 15:00:00 16.4 5 Noroeste 14 Oeste 0 -- -- 69
2019-04-01 14:00:00 16.2 3 Noroeste 11 Oeste 0 -- -- 70
2019-04-01 13:00:00 15.6 5 Noroeste 11 Noroeste 0 -- -- 72
2019-04-01 12:00:00 15.7 4 Noroeste 13 Oeste 0 -- -- 70
2019-04-01 11:00:00 14.9 5 Oeste 15 Oeste 0 -- -- 66
2019-04-01 10:00:00 14.6 2 Noroeste 6 Sudeste 0 -- -- 63
2019-04-01 09:00:00 13.7 4 Sur 14 Sudeste 0 -- -- 61
2019-04-01 08:00:00 13.8 6 Sudeste 17 Sudeste 0 -- -- 66
2019-04-01 07:00:00 14.2 4 Este 22 Sudeste 0 -- -- 60
2019-04-01 06:00:00 14.1 8 Sudeste 15 Sudeste 0 -- -- 60
2019-04-01 05:00:00 14.3 5 Este 18 Este 0 -- -- 51
2019-04-01 04:00:00 14.3 8 Nordeste 19 Este 0 -- -- 56
2019-04-01 03:00:00 14.6 9 Este 40 Sudeste 0 -- -- 44
2019-04-01 02:00:00 14.9 23 Sudeste 42 Sudeste 0 -- -- 46
2019-04-01 01:00:00 14.4 17 Sudeste 35 Sudeste 0 -- -- 71
2019-04-01 00:00:00 14.2 13 Sudeste 31 Sudeste 0 -- -- 79
2019-03-31 23:00:00 13.7 5 Sudeste 14 Sudeste 0 -- -- 85
2019-03-31 22:00:00 14.6 10 Sudeste 21 Nordeste 0 -- -- 81
2019-03-31 21:00:00 15.1 10 Este 31 Sudeste 0 -- -- 81
2019-03-31 20:00:00 15.2 15 Sudeste 28 Sudeste 0 -- -- 81
2019-03-31 19:00:00 15.3 11 Este 30 Sudeste 0 -- -- 82
2019-03-31 18:00:00 15.5 7 Este 21 Nordeste 0 -- -- 80
2019-03-31 17:00:00 15.8 12 Este 33 Sudeste 0 -- -- 80
2019-03-31 16:00:00 15.7 12 Este 38 Sudeste 0 -- -- 79
2019-03-31 15:00:00 16.3 14 Sudeste 35 Este 0 -- -- 75
2019-03-31 14:00:00 18.1 12 Este 36 Nordeste 0 -- -- 60
2019-03-31 13:00:00 18 15 Este 39 Este 0 -- -- 57
2019-03-31 12:00:00 18.2 14 Este 34 Este 0 -- -- 51
2019-03-31 11:00:00 16.1 8 Nordeste 27 Nordeste 0 -- -- 68
2019-03-31 10:00:00 16.6 12 Nordeste 31 Nordeste 0 -- -- 53
2019-03-31 09:00:00 15.9 13 Nordeste 36 Nordeste 0 -- -- 55
2019-03-31 08:00:00 14.8 12 Nordeste 35 Nordeste 0 -- -- 63
2019-03-31 07:00:00 12.7 3 Sudeste 12 Este 0 -- -- 76
2019-03-31 06:00:00 11.9 5 Sudeste 12 Sur 0 -- -- 80
2019-03-31 05:00:00 11.2 7 Sudoeste 13 Sur 0 -- -- 85
2019-03-31 03:00:00 11.4 4 Sur 13 Sudoeste 0 -- -- 83
2019-03-31 01:00:00 11.2 8 Sur 12 Sur 0 -- -- 82
2019-03-31 00:00:00 12.2 5 Sur 10 Sur 0 -- -- 81
2019-03-30 23:00:00 12.3 4 Sur 13 Sudeste 0 -- -- 79
2019-03-30 22:00:00 12.4 8 Sudeste 15 Sudeste 0 -- -- 78
2019-03-30 21:00:00 13.7 7 Sudeste 19 Este 0 -- -- 74
2019-03-30 20:00:00 14.3 8 Este 21 Este 0 -- -- 74
2019-03-30 19:00:00 15.1 8 Nordeste 26 Este 0 -- -- 69
2019-03-30 18:00:00 16.2 3 Norte 6 Norte 0 -- -- 70
2019-03-30 17:00:00 16.5 5 Norte 15 Norte 0 -- -- 67
2019-03-30 16:00:00 16 9 Norte 17 Norte 0 -- -- 70
2019-03-30 15:00:00 15.3 9 Norte 13 Norte 0 -- -- 67
2019-03-30 14:00:00 15.4 8 Norte 14 Norte 0 -- -- 66
2019-03-30 13:00:00 14.9 6 Norte 10 Norte 0 -- -- 63
2019-03-30 12:00:00 14.5 5 Norte 13 Norte 0 -- -- 62
2019-03-30 11:00:00 14.1 8 Nordeste 13 Nordeste 0 -- -- 61
2019-03-30 10:00:00 13.8 8 Nordeste 13 Nordeste 0 -- -- 61
2019-03-30 09:00:00 13.4 6 Nordeste 13 Nordeste 0 -- -- 61
2019-03-30 08:00:00 12.3 5 Sudeste 13 Sudeste 0 -- -- 65
2019-03-30 07:00:00 10.1 8 Sudeste 15 Sur 0 -- -- 71
2019-03-30 06:00:00 10 8 Sur 16 Sudeste 0 -- -- 71
2019-03-30 05:00:00 9.9 8 Sur 17 Sudeste 0 -- -- 71
2019-03-30 04:00:00 10.6 10 Sudeste 16 Sudeste 0 -- -- 70
2019-03-30 03:00:00 10.5 7 Sudeste 18 Sudeste 0 -- -- 70
2019-03-30 02:00:00 11.2 11 Sudeste 26 Sur 0 -- -- 74
2019-03-30 01:00:00 11.6 12 Sudeste 24 Sudeste 0 -- -- 74
2019-03-30 00:00:00 11.5 11 Sudeste 21 Sudeste 0 -- -- 71
2019-03-29 23:00:00 9.7 8 Sur 12 Sur 0 -- -- 71
2019-03-29 22:00:00 10.5 4 Sur 14 Sur 0 -- -- 72
2019-03-29 21:00:00 11.2 9 Sudoeste 21 Nordeste 0 -- -- 72
2019-03-29 20:00:00 13.1 14 Nordeste 22 Nordeste 0 -- -- 69
2019-03-29 19:00:00 13.5 9 Nordeste 26 Nordeste 0 -- -- 69
2019-03-29 18:00:00 14.2 19 Nordeste 33 Nordeste 0 -- -- 67
2019-03-29 17:00:00 14.6 21 Nordeste 33 Nordeste 0 -- -- 64
2019-03-29 16:00:00 14.9 22 Nordeste 32 Nordeste 0 -- -- 59
2019-03-29 15:00:00 15.5 14 Nordeste 24 Nordeste 0 -- -- 61
2019-03-29 14:00:00 14.9 14 Nordeste 24 Nordeste 0 -- -- 62
2019-03-29 13:00:00 15.2 14 Nordeste 26 Nordeste 0 -- -- 65
2019-03-29 12:00:00 14.7 14 Nordeste 21 Nordeste 0 -- -- 66
2019-03-29 11:00:00 14.3 10 Nordeste 20 Nordeste 0 -- -- 69
2019-03-29 10:00:00 13.9 7 Norte 13 Norte 0 -- -- 74
2019-03-29 09:00:00 14.2 4 Nordeste 9 Este 0 -- -- 73
2019-03-29 08:00:00 12.4 7 Sudeste 12 Este 0 -- -- 83
2019-03-29 07:00:00 10.3 7 Sudeste 11 Sudeste 0 -- -- 88
2019-03-29 06:00:00 9.7 5 Sudeste 9 Sur 0 -- -- 83
2019-03-29 05:00:00 10.5 7 Sur 9 Sudeste 0 -- -- 79
2019-03-29 04:00:00 10.5 8 Sur 10 Sur 0 -- -- 74
2019-03-29 03:00:00 10.3 7 Sur 10 Sur 0 -- -- 67
2019-03-29 02:00:00 10 6 Sur 10 Sur 0 -- -- 69
2019-03-29 01:00:00 9.5 9 Sur 14 Sur 0 -- -- 67
2019-03-29 00:00:00 10 12 Sur 14 Sur 0 -- -- 72
2019-03-28 23:00:00 10.3 8 Sur 13 Sur 0 -- -- 71
2019-03-28 22:00:00 10.7 9 Sur 12 Sur 0 -- -- 70
2019-03-28 21:00:00 11.9 6 Sur 10 Sur 0 -- -- 66
2019-03-28 20:00:00 11.7 7 Sudoeste 12 Sudoeste 0 -- -- 67
2019-03-28 19:00:00 13.8 2 Este 17 Nordeste 0 -- -- 62
2019-03-28 18:00:00 14.9 9 Nordeste 23 Nordeste 0 -- -- 56
2019-03-28 17:00:00 15.2 15 Nordeste 24 Nordeste 0 -- -- 51
2019-03-28 16:00:00 15.7 14 Nordeste 23 Nordeste 0 -- -- 53
2019-03-28 15:00:00 16.1 10 Nordeste 23 Nordeste 0 -- -- 61
2019-03-28 14:00:00 15.3 16 Nordeste 24 Nordeste 0 -- -- 58
2019-03-28 13:00:00 14.9 15 Nordeste 24 Nordeste 0 -- -- 64
2019-03-28 12:00:00 14.4 13 Nordeste 20 Nordeste 0 -- -- 66
2019-03-28 11:00:00 14.1 12 Nordeste 19 Nordeste 0 -- -- 68
2019-03-28 10:00:00 13.7 10 Nordeste 19 Nordeste 0 -- -- 69
2019-03-28 09:00:00 13.5 10 Nordeste 14 Nordeste 0 -- -- 66
2019-03-28 08:00:00 12.5 9 Sudeste 16 Sudeste 0 -- -- 74
2019-03-28 07:00:00 10.8 9 Sudeste 17 Sudeste 0 -- -- 76
2019-03-28 06:00:00 11.2 10 Sudeste 19 Sudeste 0 -- -- 70
2019-03-28 05:00:00 10.3 8 Sudeste 14 Sudeste 0 -- -- 69
2019-03-28 04:00:00 10.1 8 Sudeste 15 Este 0 -- -- 71
2019-03-28 03:00:00 10.4 8 Sudeste 16 Sudeste 0 -- -- 71
2019-03-28 02:00:00 10.6 12 Sudeste 18 Sudeste 0 -- -- 73
2019-03-28 01:00:00 10.5 9 Sudeste 14 Sudeste 0 -- -- 68
2019-03-28 00:00:00 10.7 5 Sudeste 18 Este 0 -- -- 65
2019-03-27 23:00:00 10.4 6 Sudeste 15 Este 0 -- -- 60
2019-03-27 22:00:00 11.4 10 Sudeste 17 Sudeste 0 -- -- 56
2019-03-27 21:00:00 10.3 7 Sudeste 13 Sur 0 -- -- 65
2019-03-27 20:00:00 11.5 9 Sudeste 19 Este 0 -- -- 68
2019-03-27 19:00:00 12.5 10 Nordeste 21 Norte 0 -- -- 65
2019-03-27 18:00:00 13.7 12 Nordeste 22 Nordeste 0 -- -- 58
2019-03-27 17:00:00 14.2 17 Nordeste 28 Nordeste 0 -- -- 48
2019-03-27 16:00:00 14.5 16 Nordeste 29 Nordeste 0 -- -- 52
2019-03-27 15:00:00 14.3 20 Nordeste 29 Nordeste 0 -- -- 51
2019-03-27 14:00:00 14.1 19 Nordeste 34 Nordeste 0 -- -- 59
2019-03-27 13:00:00 13.9 19 Nordeste 30 Norte 0 -- -- 62
2019-03-27 12:00:00 13.9 18 Nordeste 28 Nordeste 0 -- -- 67
2019-03-27 11:00:00 13.7 17 Nordeste 28 Nordeste 0 -- -- 66
2019-03-27 10:00:00 13.3 19 Nordeste 31 Nordeste 0 -- -- 65
2019-03-27 09:00:00 12.9 18 Nordeste 33 Nordeste 0 -- -- 64
2019-03-27 08:00:00 12.7 19 Nordeste 39 Nordeste 0 -- -- 63
2019-03-27 07:00:00 12.6 19 Norte 39 Norte 0 -- -- 61
2019-03-27 06:00:00 12.9 20 Nordeste 39 Nordeste 0 -- -- 57
2019-03-27 05:00:00 13.3 23 Norte 42 Este 0 -- -- 63
2019-03-27 04:00:00 12.9 18 Nordeste 37 Nordeste 0 -- -- 53
2019-03-27 03:00:00 12.9 12 Este 29 Sudeste 0 -- -- 52
2019-03-27 02:00:00 12.9 10 Este 29 Este 0 -- -- 43
2019-03-27 01:00:00 13.2 13 Este 34 Este 0 -- -- 43
2019-03-27 00:00:00 13.8 15 Este 37 Este 0 -- -- 37
2019-03-26 23:00:00 13.5 8 Este 25 Nordeste 0 -- -- 35
2019-03-26 22:00:00 12.5 10 Sudeste 24 Nordeste 0 -- -- 37
2019-03-26 21:00:00 13.1 12 Sudeste 30 Sudeste 0 -- -- 32
2019-03-26 20:00:00 12.8 13 Sudeste 35 Sudeste 0 -- -- 30
2019-03-26 19:00:00 12.4 13 Nordeste 40 Nordeste 0 -- -- 56
2019-03-26 18:00:00 12.6 27 Nordeste 44 Nordeste 0 -- -- 58
2019-03-26 17:00:00 12.7 24 Nordeste 45 Nordeste 0 -- -- 51
2019-03-26 16:00:00 12.7 27 Nordeste 53 Nordeste 0 -- -- 54
2019-03-26 15:00:00 12.7 32 Nordeste 57 Nordeste 0 -- -- 50
2019-03-26 14:00:00 12.8 31 Nordeste 57 Nordeste 0 -- -- 50
2019-03-26 13:00:00 13 35 Nordeste 55 Nordeste 0 -- -- 46
2019-03-26 12:00:00 13.8 28 Nordeste 54 Nordeste 0 -- -- 33
2019-03-26 11:00:00 13.7 28 Nordeste 50 Nordeste 0 -- -- 37
2019-03-26 10:00:00 13.9 23 Nordeste 46 Nordeste 0 -- -- 33
2019-03-26 09:00:00 14 18 Nordeste 40 Nordeste 0 -- -- 39
2019-03-26 08:00:00 14 28 Nordeste 50 Nordeste 0 -- -- 44
2019-03-26 07:00:00 13.2 9 Este 25 Nordeste 0 -- -- 65
2019-03-26 06:00:00 12.8 10 Este 27 Este 0 -- -- 73
2019-03-26 05:00:00 12.1 9 Sur 14 Sudeste 0 -- -- 73
2019-03-26 04:00:00 12.3 8 Sudeste 15 Sudeste 0 -- -- 68
2019-03-26 03:00:00 12.3 8 Sudeste 14 Sudeste 0 -- -- 70
2019-03-26 02:00:00 12.5 8 Sudeste 15 Sudeste 0 -- -- 68
2019-03-26 01:00:00 12.8 9 Sudeste 16 Sudeste 0 -- -- 63
2019-03-26 00:00:00 12 9 Sur 13 Sur 0 -- -- 63
2019-03-25 23:00:00 12.6 6 Sur 12 Sur 0 -- -- 62
2019-03-25 22:00:00 12.5 10 Sur 13 Sur 0 -- -- 66
2019-03-25 21:00:00 12.6 6 Sudeste 9 Sudeste 0 -- -- 77
2019-03-25 20:00:00 12.7 6 Sur 10 Sur 0 -- -- 79
2019-03-25 19:00:00 15 5 Sur 8 Sur 0 -- -- 72
2019-03-25 18:00:00 17.2 4 Norte 18 Oeste 0 -- -- 70
2019-03-25 17:00:00 16.9 8 Noroeste 21 Oeste 0 -- -- 70
2019-03-25 16:00:00 17 13 Oeste 23 Oeste 0 -- -- 71
2019-03-25 15:00:00 16.9 12 Oeste 19 Noroeste 0 -- -- 71
2019-03-25 14:00:00 17.2 4 Noroeste 17 Oeste 0 -- -- 74
2019-03-25 13:00:00 16.5 6 Oeste 15 Oeste 0 -- -- 82
2019-03-25 12:00:00 15.8 5 Norte 10 Norte 0 -- -- 87
2019-03-25 11:00:00 15.4 3 Noroeste 9 Norte 0 -- -- 82
2019-03-25 10:00:00 15.1 5 Oeste 9 Oeste 0 -- -- 81
2019-03-25 09:00:00 16.1 0 Calma 7 Sudeste 0 -- -- 72
2019-03-25 08:00:00 12 3 Sur 9 Sur 0 -- -- 62
2019-03-25 07:00:00 12.3 0 Calma 8 Sur 0 -- -- 53
2019-03-25 06:00:00 11.2 5 Sur 11 Sur 0 -- -- 52
2019-03-25 05:00:00 11.4 5 Sudoeste 10 Sur 0 -- -- 47
2019-03-25 04:00:00 10.8 5 Sur 10 Sur 0 -- -- 57
2019-03-25 03:00:00 10.9 5 Sur 10 Sur 0 -- -- 57
2019-03-25 02:00:00 11.9 3 Sur 10 Sur 0 -- -- 55
2019-03-25 01:00:00 11.2 4 Sur 9 Sur 0 -- -- 62
2019-03-25 00:00:00 11.1 6 Sur 11 Sur 0 -- -- 59